Terminal Aerodrome Forecast
Issued by NWS

Home | Current Version | Previous Version | Text Only | Print | Product List | Glossary On
Versions: 1 2 3 4 5 6 7 8 9 10 11 12
000
FTUS45 KPIH 162320
TAFSUN
TAF
KSUN 162320Z 1700/1806 14010KT P6SM SKC
     FM170400 32010KT P6SM SKC
     FM171800 14008KT P6SM FEW200
      AMD LTD TO CLD VIS AND WIND 1705/1713=

USA.gov is the U.S. government's official web portal to all federal, state and local government web resources and services.